Windy Point, Colorado
Current Conditions -  °F | °C
As of 11:35 AM on Wednesday 26 Nov 2014 (Local Time) from KGUC Reporting Station
Few Clouds Few Clouds  
Wind Chill: 33°   Ceiling: Unl
Heat Index: 41°   Visibility: 10mi
Dew Point: 25°   Wind: 15mph
Humidity: 53%   Direction: 250°WSW
Pressure: 30.4"   Gusts: 22mph
Location:  38.4566°N, 107.296°W
Report Text: KGUC 261835Z AUTO 25013G19KT 10SM FEW042 05/M04 A3040 RMK AO1
Loading
Personal Weather Stations






























Interactive Weather Map New forecast layout! Learn more

10-Day Weather Forecast

Advertisements
Track Severe Weather on mobile